New Sharon, Iowa
Current Conditions -  °F | °C
As of 3:35 PM on Thursday 18 Dec 2014 (Local Time) from KPEA Reporting Station
Broken Clouds Broken Clouds  
Wind Chill: 28°   Ceiling: 5000
Heat Index: 28°   Visibility: 10mi
Dew Point: 23°   Wind: 0mph
Humidity: 83%   Direction: NA
Pressure: 30.26"   Gusts: NA
Location:  41.47°N, 92.65°W
Report Text: KPEA 182135Z AUTO 00000KT 10SM BKN050 M02/M05 A3026 RMK AO2 T10241050
Loading
Personal Weather Stations






























Interactive Weather Map New forecast layout! Learn more

10-Day Weather Forecast

Advertisements
Track Severe Weather on mobile